Angostura, New Mexico
Current Conditions -  °F | °C
As of 9:35 AM on Friday 19 Dec 2014 (Local Time) from KSKX Reporting Station
Overcast Overcast  
Wind Chill: 21°   Ceiling: 300
Heat Index: 21°   Visibility: 0.75mi
Dew Point: 19°   Wind: 0mph
Humidity: 93%   Direction: NA
Pressure: 30.22"   Gusts: NA
Location:  36.1892°N, 105.688°W
Report Text: KSKX 191635Z AUTO 00000KT 3/4SM OVC003 M06/M07 A3022 RMK AO1
Loading
Personal Weather Stations






























Interactive Weather Map New forecast layout! Learn more

10-Day Weather Forecast

Advertisements
Track Severe Weather on mobile